createdAt,value
2018-02-17T09:48:22.911Z,38.50
2018-02-17T09:50:51.222Z,37.50
2018-02-17T09:53:18.752Z,37.50
2018-02-17T09:55:46.287Z,37.80
2018-02-17T09:58:13.844Z,37.90
2018-02-17T10:00:42.139Z,37.50
2018-02-17T10:03:10.427Z,36.20
2018-02-17T10:05:38.740Z,36.50
2018-02-17T10:08:06.292Z,36.10
2018-02-17T10:10:33.833Z,35.90
2018-02-17T10:13:01.423Z,36.40
2018-02-17T10:15:28.986Z,35.90
2018-02-17T10:17:56.512Z,35.80
2018-02-17T10:20:24.087Z,35.90
2018-02-17T10:22:51.624Z,35.50
2018-02-17T10:25:19.915Z,35.70
2018-02-17T10:27:47.457Z,35.10
2018-02-17T10:30:15.764Z,35.20
2018-02-17T10:32:43.274Z,35.60
2018-02-17T10:35:10.832Z,35.00
2018-02-17T10:37:38.377Z,35.30
2018-02-17T10:40:05.948Z,35.00
2018-02-17T10:42:33.463Z,34.90
2018-02-17T10:45:01.044Z,35.50
2018-02-17T10:47:28.558Z,34.80
2018-02-17T10:49:56.831Z,33.60
2018-02-17T10:52:25.160Z,33.60
2018-02-17T10:54:52.681Z,33.80
2018-02-17T10:57:20.999Z,33.40
2018-02-17T10:59:48.520Z,33.70
2018-02-17T11:02:16.839Z,34.40
2018-02-17T11:04:44.352Z,34.30
2018-02-17T11:07:12.668Z,33.60
2018-02-17T11:09:40.171Z,33.70
2018-02-17T11:12:07.731Z,34.20
2018-02-17T11:14:35.265Z,34.00
2018-02-17T11:17:02.831Z,33.00
2018-02-17T11:36:52.560Z,33.90
2018-02-17T11:39:20.076Z,34.70
2018-02-17T11:41:47.627Z,36.00
2018-02-17T11:44:15.176Z,36.60
2018-02-17T11:46:42.714Z,35.90
2018-02-17T11:49:11.017Z,36.40
2018-02-17T11:51:38.544Z,36.40
2018-02-17T11:54:06.083Z,36.20
2018-02-17T11:56:33.626Z,36.00
2018-02-17T11:59:01.176Z,36.70
2018-02-17T12:01:28.714Z,36.70
2018-02-17T12:03:57.017Z,37.40
2018-02-17T12:06:24.546Z,37.60
2018-02-17T12:08:52.873Z,38.50
2018-02-17T12:11:20.396Z,38.50
2018-02-17T12:13:47.919Z,38.10
2018-02-17T12:16:15.430Z,38.30
2018-02-17T12:18:42.968Z,38.80
2018-02-17T12:21:11.261Z,37.90
2018-02-17T12:23:38.841Z,38.00
2018-02-17T12:26:06.360Z,37.90
2018-02-17T12:28:34.640Z,38.10
2018-02-17T12:31:02.952Z,39.10
2018-02-17T12:33:30.482Z,38.80
2018-02-17T12:35:58.787Z,38.70
2018-02-17T12:38:26.302Z,38.70
2018-02-17T12:40:54.678Z,38.60
2018-02-17T12:43:22.206Z,38.30
2018-02-17T12:45:49.768Z,38.10
2018-02-17T12:48:17.312Z,38.60
2018-02-17T12:50:44.916Z,39.30
2018-02-17T12:53:13.228Z,38.50
2018-02-17T12:55:41.533Z,38.50
2018-02-17T12:58:09.097Z,38.50
2018-02-17T13:00:37.384Z,39.10
2018-02-17T13:03:04.916Z,39.10
2018-02-17T13:05:32.476Z,38.70
2018-02-17T13:08:00.016Z,38.20
2018-02-17T13:10:27.571Z,38.60
2018-02-17T13:12:55.875Z,37.10
2018-02-17T13:15:23.408Z,37.30
2018-02-17T13:17:51.716Z,36.10
2018-02-17T13:20:19.245Z,35.90
2018-02-17T13:22:47.545Z,35.10
2018-02-17T13:25:15.098Z,34.90
2018-02-17T13:27:43.404Z,35.80
2018-02-17T13:30:10.945Z,35.40
2018-02-17T13:32:38.487Z,35.50
2018-02-17T13:35:06.810Z,35.50
2018-02-17T13:37:34.368Z,35.40
2018-02-17T13:40:01.905Z,35.20
2018-02-17T13:42:29.452Z,35.50
2018-02-17T13:44:56.996Z,35.00
2018-02-17T13:47:24.536Z,36.10
2018-02-17T13:49:52.088Z,35.20
2018-02-17T13:52:19.655Z,35.20
2018-02-17T13:54:47.199Z,35.10
2018-02-17T13:57:14.740Z,35.10
2018-02-17T13:59:42.408Z,35.60
2018-02-17T14:02:09.800Z,35.90
2018-02-17T14:04:37.343Z,35.70
2018-02-17T14:07:05.640Z,35.90
2018-02-17T14:09:33.180Z,35.70
2018-02-17T14:12:00.710Z,35.80
2018-02-17T14:14:28.248Z,36.20
2018-02-17T14:16:56.544Z,36.60
2018-02-17T14:19:24.084Z,36.90
2018-02-17T14:21:52.386Z,36.20
2018-02-17T14:24:19.941Z,36.10
2018-02-17T14:26:47.454Z,35.60
2018-02-17T14:29:14.983Z,36.00
2018-02-17T14:31:42.556Z,36.10
2018-02-17T14:34:10.237Z,35.30
2018-02-17T14:36:37.804Z,35.50
2018-02-17T14:39:05.339Z,35.20
2018-02-17T14:41:32.865Z,36.20
2018-02-17T14:44:01.180Z,36.10
2018-02-17T14:46:28.696Z,36.30
2018-02-17T14:48:57.016Z,36.10
2018-02-17T14:51:24.576Z,36.00
2018-02-17T14:53:52.111Z,36.40
2018-02-17T14:56:19.671Z,35.30
2018-02-17T14:58:47.191Z,36.70
2018-02-17T15:01:14.729Z,36.80
2018-02-17T15:03:42.267Z,36.50
2018-02-17T15:06:09.808Z,36.60
2018-02-17T15:08:37.320Z,36.40
2018-02-17T15:11:04.896Z,36.60
2018-02-17T15:13:32.438Z,36.50
2018-02-17T15:15:59.980Z,36.90
2018-02-17T15:18:27.500Z,37.20
2018-02-17T15:20:55.809Z,36.80
2018-02-17T15:23:23.352Z,36.90
2018-02-17T15:25:50.901Z,38.00
2018-02-17T15:28:18.476Z,36.70
2018-02-17T15:30:46.004Z,37.40
2018-02-17T15:33:13.544Z,38.10
2018-02-17T15:35:41.071Z,37.20
2018-02-17T15:38:08.616Z,38.60
2018-02-17T15:40:36.232Z,37.10
2018-02-17T15:43:03.768Z,38.40
2018-02-17T15:45:31.276Z,38.60
2018-02-17T15:47:58.828Z,38.70
2018-02-17T15:50:26.348Z,39.30
2018-02-17T15:52:53.879Z,38.90
2018-02-17T15:55:21.413Z,39.00
2018-02-17T15:57:49.071Z,39.60
2018-02-17T16:00:16.610Z,38.90
2018-02-17T16:02:44.937Z,39.10
2018-02-17T16:05:12.456Z,39.00
2018-02-17T16:07:39.964Z,39.00
2018-02-17T16:10:07.504Z,38.80
2018-02-17T16:12:35.016Z,39.60
2018-02-17T16:15:03.320Z,39.20
2018-02-17T16:17:30.840Z,39.30
2018-02-17T16:19:58.372Z,39.70
2018-02-17T16:22:25.880Z,40.70
2018-02-17T16:24:54.174Z,40.30
2018-02-17T16:27:21.696Z,40.10
2018-02-17T16:29:49.228Z,40.80
2018-02-17T16:32:16.745Z,40.70
2018-02-17T16:34:45.033Z,40.50
2018-02-17T16:37:12.552Z,40.50
2018-02-17T16:39:40.080Z,41.80
2018-02-17T16:42:07.595Z,41.10
2018-02-17T16:44:35.892Z,39.80
2018-02-17T16:47:03.405Z,39.70
2018-02-17T16:49:30.962Z,39.00
2018-02-17T16:51:58.482Z,40.10
2018-02-17T16:54:25.992Z,40.40
2018-02-17T16:56:53.524Z,40.40
2018-02-17T16:59:21.070Z,39.50
2018-02-17T17:01:48.600Z,40.60
2018-02-17T17:04:16.878Z,41.60
2018-02-17T17:06:45.195Z,40.80
2018-02-17T17:09:12.714Z,40.80
2018-02-17T17:11:41.008Z,41.10
2018-02-17T17:14:08.527Z,40.80
2018-02-17T17:16:36.832Z,40.90
2018-02-17T17:19:05.160Z,40.30
2018-02-17T17:21:32.707Z,41.60
2018-02-17T17:24:00.274Z,41.70
2018-02-17T17:26:27.804Z,41.10
2018-02-17T17:28:55.317Z,41.00
2018-02-17T17:31:22.855Z,42.40
2018-02-17T17:33:50.364Z,42.70
2018-02-17T17:36:18.637Z,42.60
2018-02-17T17:38:46.929Z,42.90
2018-02-17T17:41:14.435Z,41.90
2018-02-17T17:43:41.970Z,42.00
2018-02-17T17:46:09.477Z,42.80
2018-02-17T17:48:37.057Z,42.90
2018-02-17T17:51:05.336Z,42.60
2018-02-17T17:53:33.627Z,43.30
2018-02-17T17:56:01.168Z,42.30
2018-02-17T17:58:28.680Z,42.60
2018-02-17T18:00:56.196Z,42.50
2018-02-17T18:03:24.479Z,42.70
2018-02-17T18:05:52.752Z,43.20
2018-02-17T18:08:21.039Z,43.00
2018-02-17T18:10:48.556Z,42.10
2018-02-17T18:13:16.164Z,43.40
2018-02-17T18:15:43.679Z,43.10
2018-02-17T18:18:11.208Z,42.80
2018-02-17T18:20:38.711Z,42.70
2018-02-17T18:23:06.280Z,43.90
2018-02-17T18:25:34.547Z,43.40
2018-02-17T18:28:02.048Z,44.30
2018-02-17T18:30:29.576Z,43.30
2018-02-17T18:32:57.856Z,43.70
2018-02-17T18:37:59.936Z,44.10
2018-02-17T18:40:28.239Z,43.10
2018-02-17T18:42:55.759Z,43.30
2018-02-17T18:45:23.278Z,43.60
2018-02-17T18:47:50.782Z,43.50
2018-02-17T18:50:18.303Z,44.00
2018-02-17T18:52:45.819Z,44.00
2018-02-17T18:55:14.109Z,42.90
2018-02-17T18:57:41.628Z,42.80
2018-02-17T19:00:09.172Z,43.90
2018-02-17T19:02:36.675Z,43.40
2018-02-17T19:05:04.952Z,43.60
2018-02-17T19:07:33.312Z,44.00
2018-02-17T19:10:00.819Z,44.10
2018-02-17T19:12:28.351Z,44.10
2018-02-17T19:14:56.624Z,43.90
2018-02-17T19:17:24.933Z,43.20
2018-02-17T19:19:52.440Z,43.10
2018-02-17T19:22:19.970Z,43.80
2018-02-17T19:24:47.479Z,43.90
2018-02-17T19:27:15.004Z,43.80
2018-02-17T19:29:42.512Z,43.90
2018-02-17T19:32:10.809Z,44.30
2018-02-17T19:34:38.372Z,44.30
2018-02-17T19:37:06.636Z,44.10
2018-02-17T19:39:34.907Z,43.80
2018-02-17T19:42:03.219Z,44.70
2018-02-17T19:44:30.735Z,44.90
2018-02-17T19:46:59.008Z,44.30
2018-02-17T19:49:26.526Z,44.40
2018-02-17T19:51:54.028Z,43.80
2018-02-17T19:54:21.545Z,43.90
2018-02-17T19:56:49.048Z,44.40
2018-02-17T19:59:17.345Z,44.40
2018-02-17T20:01:45.648Z,44.30
2018-02-17T20:04:13.180Z,44.10
2018-02-17T20:06:41.461Z,44.30
2018-02-17T20:09:08.987Z,44.30
2018-02-17T20:11:36.504Z,44.10
2018-02-17T20:14:04.036Z,43.80
2018-02-17T20:16:32.316Z,44.70
2018-02-17T20:19:00.637Z,44.40
2018-02-17T20:21:28.150Z,44.60
2018-02-17T20:23:56.437Z,44.20
2018-02-17T20:26:23.965Z,44.00
2018-02-17T20:28:51.473Z,45.00
2018-02-17T20:31:18.991Z,44.30
2018-02-17T20:33:46.497Z,44.10
2018-02-17T20:36:14.027Z,44.00
2018-02-17T20:38:42.299Z,44.50
2018-02-17T20:41:10.591Z,44.70
2018-02-17T20:43:38.108Z,44.40
2018-02-17T20:46:05.637Z,44.00
2018-02-17T20:48:33.155Z,44.10
2018-02-17T20:51:01.448Z,44.70
2018-02-17T20:53:28.964Z,44.70
2018-02-17T20:55:56.518Z,44.10
2018-02-17T20:58:24.040Z,45.60
2018-02-17T21:00:51.548Z,44.80
2018-02-17T21:03:19.071Z,44.60
2018-02-17T21:05:46.575Z,45.10
2018-02-17T21:08:14.105Z,43.90
2018-02-17T21:10:41.627Z,44.90
2018-02-17T21:13:09.167Z,43.40
2018-02-17T21:15:37.483Z,44.50
2018-02-17T21:18:05.056Z,44.40
2018-02-17T21:20:32.583Z,44.80
2018-02-17T21:23:00.885Z,45.10
2018-02-17T21:25:28.398Z,44.90
2018-02-17T21:27:55.927Z,45.10
2018-02-17T21:30:23.440Z,44.60
2018-02-17T21:32:50.960Z,44.90
2018-02-17T21:35:18.536Z,44.70
2018-02-17T21:37:46.018Z,45.10
2018-02-17T21:40:14.308Z,44.60
2018-02-17T21:42:41.815Z,44.50
2018-02-17T21:45:09.343Z,44.90
2018-02-17T21:47:36.863Z,44.40
2018-02-17T21:50:05.164Z,44.90
2018-02-17T21:52:32.684Z,44.80
2018-02-17T21:55:00.217Z,45.30
2018-02-17T21:57:27.736Z,45.20
2018-02-17T21:59:55.264Z,44.50
2018-02-17T22:02:22.781Z,44.10
2018-02-17T22:04:50.307Z,44.70
2018-02-17T22:07:18.575Z,44.90
2018-02-17T22:09:46.869Z,44.60
2018-02-17T22:12:15.160Z,44.80
2018-02-17T22:14:42.672Z,45.00
2018-02-17T22:17:10.208Z,45.40
2018-02-17T22:19:37.726Z,45.60
2018-02-17T22:22:06.016Z,45.10
2018-02-17T22:24:33.528Z,44.70
2018-02-17T22:27:01.049Z,45.50
2018-02-17T22:29:28.580Z,45.60
2018-02-17T22:31:56.868Z,45.30
2018-02-17T22:34:24.411Z,45.40
2018-02-17T22:36:52.707Z,45.90
2018-02-17T22:39:20.219Z,45.90
2018-02-17T22:41:47.766Z,45.30
2018-02-17T22:44:15.279Z,45.10
2018-02-17T22:46:42.803Z,45.10
2018-02-17T22:49:10.327Z,45.30
2018-02-17T22:51:37.832Z,45.20
2018-02-17T22:54:05.396Z,45.30
2018-02-17T22:56:33.688Z,45.40
2018-02-17T22:59:01.980Z,45.10
2018-02-17T23:01:29.498Z,45.30
2018-02-17T23:03:57.040Z,45.70
2018-02-17T23:06:24.564Z,45.70
2018-02-17T23:08:52.093Z,45.20
2018-02-17T23:11:19.599Z,45.50
2018-02-17T23:13:47.111Z,45.70
2018-02-17T23:16:14.727Z,45.50
2018-02-17T23:18:42.273Z,45.70
2018-02-17T23:21:09.786Z,46.00
2018-02-17T23:23:37.307Z,44.70
2018-02-17T23:26:04.832Z,46.20
2018-02-17T23:28:33.108Z,45.70
2018-02-17T23:31:01.392Z,46.70
2018-02-17T23:33:29.663Z,46.30
2018-02-17T23:35:57.952Z,46.30
2018-02-17T23:38:25.452Z,46.20
2018-02-17T23:40:52.998Z,46.20
2018-02-17T23:43:20.516Z,46.00
2018-02-17T23:45:48.808Z,46.30
2018-02-17T23:48:16.315Z,46.80
2018-02-17T23:50:43.848Z,46.10
2018-02-17T23:53:11.352Z,45.70
2018-02-17T23:55:38.882Z,46.40
2018-02-17T23:58:06.428Z,46.70
